Time;durP1;ratioP1;P1;durP2;ratioP2;P2;SDS_P1;SDS_P2;PMS_P1;PMS_P2;Temp;Humidity;BMP_temperature;BMP_pressure;BME280_temperature;BME280_humidity;BME280_pressure;Samples;Min_cycle;Max_cycle;Signal;HPM_P1;HPM_P2
2022/10/18 00:02:23;;;;;;;1.75;0.70;;;30.30;61.10;;;;;;5095604;28;20079;-69
2022/10/18 00:04:49;;;;;;;2.83;0.82;;;30.10;62.50;;;;;;5101234;28;20067;-69
2022/10/18 00:07:15;;;;;;;7.82;1.67;;;30.10;62.90;;;;;;5097497;28;20095;-68
2022/10/18 00:09:42;;;;;;;3.17;1.00;;;30.10;62.00;;;;;;5095132;28;20129;-69
2022/10/18 00:12:08;;;;;;;1.75;0.73;;;30.10;61.60;;;;;;5094749;28;20069;-71
2022/10/18 00:14:35;;;;;;;1.48;0.82;;;30.00;61.60;;;;;;5101300;28;20626;-70
2022/10/18 00:17:01;;;;;;;4.97;0.88;;;30.00;62.50;;;;;;5094955;27;20098;-70
2022/10/18 00:19:28;;;;;;;3.50;0.75;;;30.00;63.50;;;;;;5094718;28;20122;-69
2022/10/18 00:21:54;;;;;;;4.00;0.88;;;29.90;62.30;;;;;;5093922;28;20068;-68
2022/10/18 00:24:20;;;;;;;5.75;1.10;;;29.80;62.20;;;;;;5097567;28;20528;-70
2022/10/18 00:26:47;;;;;;;6.10;1.10;;;29.80;62.30;;;;;;5105085;28;20080;-71
2022/10/18 00:29:15;;;;;;;3.85;1.00;;;29.70;62.90;;;;;;5095755;27;20080;-69
2022/10/18 00:31:43;;;;;;;1.80;0.80;;;29.70;62.00;;;;;;5098185;28;20076;-72
2022/10/18 00:34:14;;;;;;;8.88;1.25;;;29.60;62.20;;;;;;5100458;28;20507;-66
2022/10/18 00:36:41;;;;;;;5.60;1.23;;;29.50;62.70;;;;;;5100026;28;20201;-67
2022/10/18 00:39:13;;;;;;;4.13;0.90;;;29.50;62.50;;;;;;5099800;28;20080;-65
2022/10/18 00:41:40;;;;;;;7.30;1.00;;;29.40;61.70;;;;;;5098602;28;20083;-67
2022/10/18 00:44:26;;;;;;;5.47;1.30;;;29.40;62.00;;;;;;5094740;28;20068;-65
2022/10/18 00:47:04;;;;;;;3.97;1.27;;;29.30;62.40;;;;;;5087472;28;20547;-67
2022/10/18 00:49:45;;;;;;;2.63;1.23;;;29.20;62.70;;;;;;5091462;28;20072;-66
2022/10/18 00:52:20;;;;;;;5.50;1.27;;;29.20;62.40;;;;;;5090821;28;20072;-67
2022/10/18 00:54:48;;;;;;;4.38;1.08;;;29.10;62.00;;;;;;5089566;28;20073;-66
2022/10/18 00:57:15;;;;;;;2.90;1.40;;;29.10;62.60;;;;;;5098436;28;20127;-66
2022/10/18 00:59:42;;;;;;;2.75;1.08;;;29.00;63.00;;;;;;5092596;28;20127;-67
2022/10/18 01:02:09;;;;;;;4.30;1.20;;;28.90;63.50;;;;;;5092189;28;20175;-68
2022/10/18 01:04:35;;;;;;;7.55;1.25;;;28.80;64.40;;;;;;5090592;28;20059;-66
2022/10/18 01:07:29;;;;;;;5.03;1.10;;;28.80;63.60;;;;;;5091752;28;20067;-66
2022/10/18 01:10:24;;;;;;;5.13;1.05;;;28.70;64.30;;;;;;5091373;28;20806;-66
2022/10/18 01:13:09;;;;;;;8.60;1.63;;;28.60;64.80;;;;;;5090053;28;20068;-72
2022/10/18 01:15:51;;;;;;;9.82;1.77;;;28.50;65.00;;;;;;5090217;28;20120;-68
2022/10/18 01:18:30;;;;;;;9.75;2.42;;;28.40;65.40;;;;;;5087906;28;20427;-66
2022/10/18 01:21:06;;;;;;;3.58;1.20;;;28.40;66.50;;;;;;5090030;28;20071;-66
2022/10/18 01:24:03;;;;;;;12.45;2.00;;;28.30;65.90;;;;;;5089773;28;20091;-69
2022/10/18 01:26:42;;;;;;;5.72;1.80;;;28.30;66.50;;;;;;5092316;28;20067;-69
2022/10/18 01:29:08;;;;;;;11.88;1.58;;;28.20;67.10;;;;;;5088284;28;20071;-69
2022/10/18 01:31:44;;;;;;;9.52;2.08;;;28.10;67.40;;;;;;5090948;28;20551;-69
2022/10/18 01:34:16;;;;;;;8.30;1.92;;;28.10;67.70;;;;;;5090783;28;20109;-67
2022/10/18 01:36:46;;;;;;;9.23;2.20;;;28.00;67.40;;;;;;5089454;28;20169;-67
2022/10/18 01:39:25;;;;;;;9.32;2.20;;;27.90;67.90;;;;;;5088704;28;20079;-71
2022/10/18 01:41:54;;;;;;;14.85;2.75;;;27.90;68.20;;;;;;5089893;28;20067;-68
2022/10/18 01:44:26;;;;;;;11.00;2.67;;;27.80;68.40;;;;;;5088383;28;20428;-66
2022/10/18 01:46:55;;;;;;;14.68;2.58;;;27.80;68.60;;;;;;5089456;28;20064;-65
2022/10/18 01:49:23;;;;;;;6.90;2.03;;;27.70;68.90;;;;;;5087299;28;20097;-66
2022/10/18 01:51:49;;;;;;;11.38;2.70;;;27.70;69.20;;;;;;5092475;28;20088;-67
2022/10/18 01:54:23;;;;;;;11.15;2.05;;;27.60;68.70;;;;;;5088528;28;20418;-66
2022/10/18 01:57:07;;;;;;;13.15;2.60;;;27.60;69.50;;;;;;5089318;28;20167;-65
2022/10/18 01:59:49;;;;;;;10.27;2.53;;;27.50;69.00;;;;;;5088594;28;20084;-66
2022/10/18 02:02:38;;;;;;;8.27;2.63;;;27.50;69.20;;;;;;5092984;28;20148;-64
2022/10/18 02:05:08;;;;;;;10.18;2.72;;;27.40;69.20;;;;;;5088918;28;20095;-65
2022/10/18 02:07:44;;;;;;;18.05;2.85;;;27.30;69.20;;;;;;5089190;28;20069;-65
2022/10/18 02:10:31;;;;;;;27.38;3.08;;;27.30;70.10;;;;;;5087959;28;20533;-66
2022/10/18 02:12:58;;;;;;;15.75;2.55;;;27.20;70.40;;;;;;5087708;28;20096;-67
2022/10/18 02:15:36;;;;;;;10.25;2.08;;;27.20;70.60;;;;;;5089240;28;20606;-66
2022/10/18 02:18:07;;;;;;;10.75;2.10;;;27.20;69.90;;;;;;5087801;28;20096;-65
2022/10/18 02:20:35;;;;;;;12.38;1.75;;;27.10;70.70;;;;;;5089105;28;20076;-67
2022/10/18 02:23:05;;;;;;;16.75;2.58;;;27.10;71.60;;;;;;5090210;28;20065;-64
2022/10/18 02:25:33;;;;;;;10.82;2.33;;;27.10;70.80;;;;;;5100993;28;20583;-64
2022/10/18 02:28:00;;;;;;;11.60;3.05;;;27.10;71.00;;;;;;5093660;28;20071;-65
2022/10/18 02:30:45;;;;;;;17.85;3.38;;;27.00;71.30;;;;;;5090317;28;20098;-65
2022/10/18 02:33:21;;;;;;;14.20;3.72;;;27.00;72.10;;;;;;5096290;28;20087;-69
2022/10/18 02:35:54;;;;;;;18.35;4.05;;;27.00;72.20;;;;;;5089819;28;20420;-69
2022/10/18 02:38:23;;;;;;;26.70;4.28;;;27.00;72.20;;;;;;5093117;28;20076;-68
2022/10/18 02:40:49;;;;;;;16.42;4.13;;;27.00;73.10;;;;;;5095404;28;20091;-67
2022/10/18 02:43:16;;;;;;;18.17;3.97;;;26.90;73.80;;;;;;5088602;28;20074;-68
2022/10/18 02:45:42;;;;;;;15.13;3.85;;;26.90;73.90;;;;;;5095062;28;20076;-67
2022/10/18 02:48:09;;;;;;;16.15;3.80;;;26.90;74.10;;;;;;5085642;28;20520;-67
2022/10/18 02:50:35;;;;;;;11.68;3.50;;;26.80;74.40;;;;;;5086120;28;20080;-66
2022/10/18 02:53:03;;;;;;;12.05;3.45;;;26.70;75.80;;;;;;5089010;28;20069;-66
2022/10/18 02:55:29;;;;;;;20.63;3.65;;;26.70;75.10;;;;;;5089001;28;20557;-66
2022/10/18 02:57:55;;;;;;;14.05;3.28;;;26.60;75.50;;;;;;5088522;28;20513;-65
2022/10/18 03:00:22;;;;;;;19.85;3.72;;;26.60;76.70;;;;;;5087942;28;20096;-67
2022/10/18 03:02:48;;;;;;;14.07;3.40;;;26.50;76.70;;;;;;5088775;28;20123;-66
2022/10/18 03:05:15;;;;;;;15.82;3.70;;;26.50;77.20;;;;;;5088276;28;20071;-66
2022/10/18 03:07:41;;;;;;;14.88;3.78;;;26.40;77.30;;;;;;5087869;28;20072;-67
2022/10/18 03:10:08;;;;;;;17.17;3.53;;;26.30;77.70;;;;;;5089262;28;20101;-67
2022/10/18 03:12:34;;;;;;;29.83;4.00;;;26.30;78.60;;;;;;5087390;28;20082;-67
2022/10/18 03:15:00;;;;;;;25.00;4.03;;;26.20;79.00;;;;;;5092499;28;20507;-67
2022/10/18 03:17:27;;;;;;;23.63;3.58;;;26.20;79.90;;;;;;5087017;28;20549;-67
2022/10/18 03:19:53;;;;;;;16.55;4.38;;;26.10;80.30;;;;;;5090564;28;20089;-68
2022/10/18 03:22:20;;;;;;;16.35;3.88;;;26.10;81.30;;;;;;5088555;28;20068;-69
2022/10/18 03:24:46;;;;;;;16.45;4.85;;;26.10;80.90;;;;;;5087239;28;20073;-69
2022/10/18 03:27:12;;;;;;;26.00;5.65;;;26.00;81.10;;;;;;5087901;28;20151;-67
2022/10/18 03:29:39;;;;;;;21.02;4.40;;;26.00;81.40;;;;;;5088234;28;20077;-69
2022/10/18 03:32:06;;;;;;;18.60;4.93;;;25.90;81.90;;;;;;5088203;28;20076;-69
2022/10/18 03:34:32;;;;;;;27.83;5.32;;;25.90;82.70;;;;;;5090215;28;20149;-68
2022/10/18 03:36:59;;;;;;;18.67;5.30;;;25.80;83.10;;;;;;5088028;28;20079;-67
2022/10/18 03:39:25;;;;;;;24.25;6.20;;;25.70;83.30;;;;;;5089164;28;20096;-67
2022/10/18 03:41:52;;;;;;;25.73;5.85;;;25.70;83.30;;;;;;5087796;28;20143;-67
2022/10/18 03:44:18;;;;;;;21.20;5.80;;;25.70;84.90;;;;;;5092956;28;21012;-68
2022/10/18 03:46:44;;;;;;;28.85;5.68;;;25.60;84.60;;;;;;5088833;28;20175;-67
2022/10/18 03:49:11;;;;;;;19.63;5.30;;;25.60;84.50;;;;;;5091911;28;20092;-68
2022/10/18 03:51:37;;;;;;;29.70;5.43;;;25.60;84.60;;;;;;5087332;28;20072;-68
2022/10/18 03:54:04;;;;;;;23.67;4.93;;;25.60;85.20;;;;;;5088010;28;20076;-67
2022/10/18 03:56:30;;;;;;;26.15;4.68;;;25.50;84.80;;;;;;5089337;28;20178;-67
2022/10/18 03:58:56;;;;;;;22.35;4.30;;;25.50;84.40;;;;;;5104204;28;20156;-68
2022/10/18 04:01:23;;;;;;;14.32;4.15;;;25.40;86.00;;;;;;5092414;28;20120;-67
2022/10/18 04:03:49;;;;;;;18.35;4.75;;;25.40;85.90;;;;;;5088731;28;20081;-67
2022/10/18 04:06:15;;;;;;;22.70;4.03;;;25.40;85.10;;;;;;5088133;28;20147;-65
2022/10/18 04:08:42;;;;;;;26.52;3.97;;;25.40;85.80;;;;;;5091035;28;20076;-68
2022/10/18 04:11:09;;;;;;;18.17;4.38;;;25.40;86.40;;;;;;5091778;28;20088;-69
2022/10/18 04:13:36;;;;;;;13.40;3.33;;;25.40;85.80;;;;;;5091477;28;20069;-69
2022/10/18 04:16:02;;;;;;;20.83;4.25;;;25.40;86.10;;;;;;5092183;28;20112;-67
2022/10/18 04:18:29;;;;;;;12.43;3.63;;;25.30;86.20;;;;;;5092697;28;20180;-66
2022/10/18 04:20:55;;;;;;;10.75;3.20;;;25.30;86.20;;;;;;5093152;28;20130;-68
2022/10/18 04:23:22;;;;;;;17.05;4.20;;;25.30;86.50;;;;;;5090891;28;20130;-68
2022/10/18 04:25:48;;;;;;;13.23;4.50;;;25.30;86.50;;;;;;5093522;28;20096;-66
2022/10/18 04:28:14;;;;;;;17.90;4.45;;;25.30;86.50;;;;;;5097325;28;20171;-69
2022/10/18 04:30:41;;;;;;;17.40;4.82;;;25.30;86.30;;;;;;5093067;28;20067;-65
2022/10/18 04:33:07;;;;;;;20.23;5.05;;;25.30;86.20;;;;;;5093249;28;20077;-69
2022/10/18 04:35:33;;;;;;;17.38;4.25;;;25.30;86.60;;;;;;5093747;28;20064;-67
2022/10/18 04:38:00;;;;;;;18.05;4.88;;;25.20;86.70;;;;;;5090938;28;20137;-69
2022/10/18 04:40:26;;;;;;;21.38;4.68;;;25.20;86.80;;;;;;5091816;28;20646;-68
2022/10/18 04:42:52;;;;;;;14.35;4.35;;;25.20;87.00;;;;;;5098282;28;20537;-66
2022/10/18 04:45:19;;;;;;;29.00;6.07;;;25.20;87.30;;;;;;5092686;27;20140;-67
2022/10/18 04:47:45;;;;;;;23.73;5.05;;;25.10;86.90;;;;;;5097711;28;20060;-66
2022/10/18 04:50:11;;;;;;;25.77;5.72;;;25.10;87.50;;;;;;5090851;28;20136;-66
2022/10/18 04:52:38;;;;;;;23.33;5.53;;;25.10;87.90;;;;;;5089450;28;20080;-69
2022/10/18 04:55:05;;;;;;;27.15;5.47;;;24.90;88.20;;;;;;5092404;28;20073;-67
2022/10/18 04:57:31;;;;;;;25.88;6.32;;;24.90;89.30;;;;;;5104034;28;20589;-68
2022/10/18 04:59:57;;;;;;;28.02;6.43;;;24.90;89.10;;;;;;5091064;28;20171;-69
2022/10/18 05:02:24;;;;;;;19.45;5.47;;;24.90;89.30;;;;;;5092544;28;20083;-68
2022/10/18 05:04:51;;;;;;;15.68;6.13;;;24.90;89.20;;;;;;5092746;28;20069;-68
2022/10/18 05:07:17;;;;;;;22.20;6.53;;;24.90;89.40;;;;;;5092770;28;20155;-67
2022/10/18 05:09:44;;;;;;;21.08;6.85;;;24.90;89.70;;;;;;5091526;28;20073;-67
2022/10/18 05:12:10;;;;;;;25.50;6.57;;;24.80;89.80;;;;;;5090691;28;20100;-69
2022/10/18 05:14:36;;;;;;;23.33;7.03;;;24.80;90.00;;;;;;5100527;28;20110;-66
2022/10/18 05:17:03;;;;;;;27.98;8.63;;;24.80;90.00;;;;;;5093109;28;20068;-69
2022/10/18 05:19:29;;;;;;;22.73;7.30;;;24.70;90.30;;;;;;5091206;28;20089;-68
2022/10/18 05:21:55;;;;;;;22.83;8.60;;;24.70;90.40;;;;;;5091148;28;20065;-69
2022/10/18 05:24:22;;;;;;;30.95;7.25;;;24.70;90.40;;;;;;5089334;28;20071;-66
2022/10/18 05:26:48;;;;;;;27.50;11.02;;;24.70;90.40;;;;;;5091618;28;20110;-69
2022/10/18 05:29:14;;;;;;;26.83;7.35;;;24.70;90.30;;;;;;5100161;28;20526;-69
2022/10/18 05:31:41;;;;;;;16.60;6.30;;;24.70;90.40;;;;;;5091768;28;20114;-69
2022/10/18 05:34:07;;;;;;;33.53;6.88;;;24.60;90.30;;;;;;5092435;28;20072;-70
2022/10/18 05:36:34;;;;;;;32.47;6.80;;;24.60;90.50;;;;;;5089713;28;20168;-69
2022/10/18 05:39:03;;;;;;;19.67;5.55;;;24.60;90.20;;;;;;5089908;28;20083;-70
2022/10/18 05:41:30;;;;;;;23.20;5.47;;;24.60;89.30;;;;;;5090690;28;20072;-68
2022/10/18 05:43:56;;;;;;;18.48;5.35;;;24.70;89.10;;;;;;5094602;28;20150;-72
2022/10/18 05:46:23;;;;;;;18.65;5.10;;;24.60;89.50;;;;;;5092926;28;20133;-71
2022/10/18 05:48:50;;;;;;;22.30;4.78;;;24.60;89.70;;;;;;5096624;28;20071;-70
2022/10/18 05:51:17;;;;;;;11.85;3.72;;;24.60;89.30;;;;;;5091758;28;20584;-67
2022/10/18 05:53:44;;;;;;;16.70;3.90;;;24.60;88.90;;;;;;5089818;28;20483;-68
2022/10/18 05:56:10;;;;;;;13.88;3.97;;;24.50;89.00;;;;;;5093335;28;20072;-68
2022/10/18 05:58:37;;;;;;;11.20;3.17;;;24.50;88.80;;;;;;5101971;28;20087;-68
2022/10/18 06:01:05;;;;;;;9.63;3.10;;;24.50;89.00;;;;;;5091695;28;20107;-66
2022/10/18 06:03:31;;;;;;;10.43;2.88;;;24.60;96.60;;;;;;5090860;28;20064;-66
2022/10/18 06:06:06;;;;;;;10.93;3.13;;;24.40;88.50;;;;;;5094090;28;20087;-68
2022/10/18 06:08:34;;;;;;;14.10;3.97;;;24.30;99.90;;;;;;5091808;28;20093;-67
2022/10/18 06:11:06;;;;;;;6.63;2.50;;;24.40;99.90;;;;;;5089368;28;20082;-68
2022/10/18 06:13:33;;;;;;;11.35;2.70;;;24.70;99.90;;;;;;5091126;28;20072;-68
2022/10/18 06:16:02;;;;;;;15.05;3.05;;;24.40;88.70;;;;;;5090894;28;20138;-68
2022/10/18 06:18:29;;;;;;;7.63;2.22;;;24.40;88.80;;;;;;5090620;28;20093;-68
2022/10/18 06:20:59;;;;;;;7.97;2.35;;;24.30;87.90;;;;;;5097099;28;20051;-69
2022/10/18 06:23:28;;;;;;;13.32;2.40;;;24.10;99.90;;;;;;5092484;28;20135;-68
2022/10/18 06:26:02;;;;;;;6.30;2.25;;;24.30;88.60;;;;;;5088796;28;20522;-69
2022/10/18 06:28:29;;;;;;;11.13;2.10;;;24.30;88.70;;;;;;5092167;28;20086;-69
2022/10/18 06:30:57;;;;;;;15.88;2.05;;;24.20;88.30;;;;;;5089511;28;20083;-69
2022/10/18 06:33:23;;;;;;;7.97;1.95;;;24.20;88.00;;;;;;5088467;28;20072;-67
2022/10/18 06:36:01;;;;;;;6.72;2.20;;;23.90;99.90;;;;;;5088992;28;20067;-71
2022/10/18 06:38:29;;;;;;;3.08;1.70;;;24.20;87.70;;;;;;5090026;28;20074;-69
2022/10/18 06:40:56;;;;;;;8.48;1.90;;;24.10;87.30;;;;;;5089113;28;20104;-73
2022/10/18 06:43:23;;;;;;;6.43;2.35;;;24.20;87.20;;;;;;5089738;28;20079;-70
2022/10/18 06:45:51;;;;;;;5.65;2.03;;;24.10;87.70;;;;;;5089106;28;20115;-66
2022/10/18 06:48:18;;;;;;;7.60;2.30;;;24.10;88.10;;;;;;5088427;28;20074;-68
2022/10/18 06:51:10;;;;;;;4.45;2.53;;;24.10;88.70;;;;;;5090536;28;20543;-69
2022/10/18 06:53:39;;;;;;;10.05;2.67;;;24.00;89.00;;;;;;5081794;28;20133;-69
2022/10/18 06:56:11;;;;;;;7.05;2.95;;;24.00;89.90;;;;;;5088946;28;20169;-68
2022/10/18 06:58:38;;;;;;;7.93;3.78;;;24.00;90.00;;;;;;5092773;28;20516;-69
2022/10/18 07:01:10;;;;;;;7.50;3.70;;;24.00;90.40;;;;;;5089319;28;20083;-69
2022/10/18 07:03:36;;;;;;;15.32;4.45;;;24.00;90.50;;;;;;5089183;28;20496;-68
2022/10/18 07:06:06;;;;;;;13.00;4.18;;;24.00;90.70;;;;;;5087648;28;20484;-69
2022/10/18 07:08:33;;;;;;;7.13;4.22;;;24.00;90.90;;;;;;5093513;28;20067;-69
2022/10/18 07:10:59;;;;;;;9.35;3.97;;;23.90;91.10;;;;;;5090906;28;20066;-69
2022/10/18 07:13:31;;;;;;;8.50;3.75;;;23.80;91.70;;;;;;5088597;28;20075;-69
2022/10/18 07:16:11;;;;;;;7.65;4.47;;;23.70;91.90;;;;;;5089179;28;20099;-69
2022/10/18 07:18:43;;;;;;;11.70;5.20;;;23.80;92.10;;;;;;5089652;28;20077;-67
2022/10/18 07:21:12;;;;;;;13.18;5.75;;;23.70;92.20;;;;;;5087892;28;20170;-66
2022/10/18 07:23:41;;;;;;;11.10;5.50;;;23.60;92.50;;;;;;5088880;28;20075;-68
2022/10/18 07:26:28;;;;;;;12.45;5.32;;;23.70;92.90;;;;;;5088761;28;20064;-69
2022/10/18 07:29:07;;;;;;;11.20;6.15;;;23.60;93.10;;;;;;5086627;28;20446;-68
2022/10/18 07:31:34;;;;;;;9.45;5.55;;;23.50;93.20;;;;;;5088261;28;20101;-69
2022/10/18 07:34:02;;;;;;;12.15;5.28;;;23.60;93.50;;;;;;5086413;28;20482;-69
2022/10/18 07:36:29;;;;;;;9.10;5.25;;;23.50;94.00;;;;;;5089136;28;20079;-68
2022/10/18 07:38:55;;;;;;;10.35;5.93;;;23.40;99.90;;;;;;5094047;28;20207;-66
2022/10/18 07:41:22;;;;;;;9.27;5.45;;;23.40;94.30;;;;;;5093844;28;20087;-70
2022/10/18 07:43:50;;;;;;;13.45;5.68;;;23.40;94.60;;;;;;5096043;28;20060;-69
2022/10/18 07:46:18;;;;;;;10.48;6.03;;;23.40;99.90;;;;;;5098942;28;20545;-69
2022/10/18 07:48:44;;;;;;;14.98;6.50;;;23.50;94.80;;;;;;5093633;28;20075;-68
2022/10/18 07:51:11;;;;;;;9.35;5.90;;;23.50;94.90;;;;;;5096676;28;20094;-68
2022/10/18 07:53:38;;;;;;;13.18;5.97;;;23.50;95.20;;;;;;5089245;28;20075;-69
2022/10/18 07:56:14;;;;;;;14.38;5.85;;;23.40;95.30;;;;;;5091435;28;20519;-70
2022/10/18 07:58:42;;;;;;;9.38;5.05;;;23.40;95.20;;;;;;5095120;28;20083;-68
2022/10/18 08:01:09;;;;;;;10.63;5.90;;;23.30;95.40;;;;;;5095305;28;20224;-69
2022/10/18 08:03:36;;;;;;;7.72;5.25;;;23.30;95.40;;;;;;5095506;28;20063;-69
2022/10/18 08:06:05;;;;;;;8.93;5.63;;;23.30;95.60;;;;;;5091543;28;20080;-68
2022/10/18 08:08:31;;;;;;;11.00;4.97;;;23.20;95.70;;;;;;5090695;28;20066;-69
2022/10/18 08:11:03;;;;;;;7.00;5.40;;;23.20;95.80;;;;;;5092705;28;20075;-67
2022/10/18 08:13:30;;;;;;;9.15;5.32;;;23.20;95.70;;;;;;5102359;28;20086;-68
2022/10/18 08:16:04;;;;;;;8.25;4.45;;;25.60;96.20;;;;;;5091026;28;20108;-68
2022/10/18 08:18:31;;;;;;;7.60;4.30;;;23.20;95.40;;;;;;5098603;28;20120;-68
2022/10/18 08:21:01;;;;;;;8.90;4.80;;;23.20;95.10;;;;;;5092624;28;20075;-68
2022/10/18 08:23:28;;;;;;;7.80;4.40;;;23.20;95.30;;;;;;5094804;28;20076;-68
2022/10/18 08:25:55;;;;;;;11.65;4.20;;;23.20;95.30;;;;;;5090587;28;20070;-69
2022/10/18 08:28:21;;;;;;;8.10;4.38;;;23.20;95.00;;;;;;5089656;28;20092;-68
2022/10/18 08:30:48;;;;;;;5.63;3.88;;;23.10;95.10;;;;;;5091378;28;20087;-67
2022/10/18 08:33:14;;;;;;;6.50;3.40;;;23.10;95.20;;;;;;5092566;28;20078;-67
2022/10/18 08:35:40;;;;;;;5.35;3.58;;;23.00;95.40;;;;;;5089627;28;20117;-69
2022/10/18 08:38:10;;;;;;;7.75;3.90;;;23.00;95.00;;;;;;5091671;28;20087;-67
2022/10/18 08:40:43;;;;;;;11.52;3.78;;;23.00;94.80;;;;;;5089731;28;20084;-68
2022/10/18 08:43:12;;;;;;;5.65;3.35;;;23.10;94.60;;;;;;5091390;28;20067;-69
2022/10/18 08:45:40;;;;;;;3.28;2.85;;;23.00;94.40;;;;;;5097691;28;20140;-68
2022/10/18 08:48:15;;;;;;;4.68;2.85;;;23.00;94.40;;;;;;5091105;28;20099;-68
2022/10/18 08:50:42;;;;;;;5.50;3.28;;;23.00;94.50;;;;;;5089313;28;20121;-68
2022/10/18 08:53:25;;;;;;;5.47;3.13;;;23.00;94.60;;;;;;5090602;28;20087;-68
2022/10/18 08:56:01;;;;;;;8.43;2.78;;;23.00;94.60;;;;;;5086335;28;20075;-69
2022/10/18 08:58:32;;;;;;;4.85;2.70;;;23.10;94.50;;;;;;5092289;28;20434;-69
2022/10/18 09:01:34;;;;;;;5.60;2.97;;;22.90;94.50;;;;;;5090138;28;20592;-68
2022/10/18 09:04:03;;;;;;;5.85;2.53;;;22.70;99.90;;;;;;5090135;28;20170;-69
2022/10/18 09:06:57;;;;;;;6.53;2.60;;;22.90;94.30;;;;;;5100510;28;20066;-69
2022/10/18 09:10:01;;;;;;;11.65;2.60;;;22.90;94.10;;;;;;5089753;28;20081;-68
2022/10/18 09:12:41;;;;;;;4.18;2.25;;;23.00;94.10;;;;;;5089256;28;20071;-68
2022/10/18 09:15:29;;;;;;;3.30;2.20;;;22.90;94.00;;;;;;5089693;28;20402;-70
2022/10/18 09:18:28;;;;;;;4.15;2.05;;;22.90;93.90;;;;;;5089393;28;20516;-69
2022/10/18 09:21:23;;;;;;;3.65;1.98;;;22.90;94.00;;;;;;5090003;28;20079;-69
2022/10/18 09:24:14;;;;;;;3.92;2.30;;;22.90;94.10;;;;;;5089669;28;20095;-69
2022/10/18 09:26:46;;;;;;;3.85;2.00;;;22.80;94.00;;;;;;5089405;28;20078;-69
2022/10/18 09:29:22;;;;;;;4.53;2.78;;;22.80;94.30;;;;;;5089138;28;20556;-68
2022/10/18 09:32:13;;;;;;;3.35;2.05;;;23.30;99.90;;;;;;5088824;28;20091;-67
2022/10/18 09:34:52;;;;;;;6.03;2.33;;;22.80;94.30;;;;;;5088949;28;20076;-68
2022/10/18 09:37:20;;;;;;;6.88;2.47;;;22.30;99.90;;;;;;5089480;28;20071;-69
2022/10/18 09:39:49;;;;;;;5.90;2.40;;;22.80;99.90;;;;;;5089831;28;20080;-70
2022/10/18 09:42:35;;;;;;;2.97;2.38;;;22.60;94.80;;;;;;5089545;28;20076;-67
2022/10/18 09:45:29;;;;;;;5.97;2.30;;;22.70;94.90;;;;;;5091325;28;20075;-67
2022/10/18 09:48:14;;;;;;;5.65;2.25;;;22.40;95.50;;;;;;5086504;28;20180;-69
2022/10/18 09:51:16;;;;;;;7.72;2.40;;;22.50;99.90;;;;;;5088528;28;20501;-68
2022/10/18 09:54:06;;;;;;;3.60;2.30;;;22.50;95.30;;;;;;5087708;28;20119;-69
2022/10/18 09:56:43;;;;;;;7.43;2.63;;;22.50;95.40;;;;;;5090029;28;20120;-69
2022/10/18 09:59:42;;;;;;;5.05;2.05;;;22.40;95.40;;;;;;5088833;28;20094;-69
2022/10/18 10:02:13;;;;;;;5.15;2.45;;;22.40;95.60;;;;;;5088009;28;20212;-69
2022/10/18 10:04:40;;;;;;;8.07;2.40;;;22.40;95.50;;;;;;5089131;28;20093;-69
2022/10/18 10:07:10;;;;;;;5.63;2.20;;;22.40;95.70;;;;;;5088874;28;20140;-69
2022/10/18 10:09:47;;;;;;;8.32;3.00;;;22.40;95.60;;;;;;5089003;28;20067;-67
2022/10/18 10:12:31;;;;;;;4.82;2.13;;;22.40;95.60;;;;;;5087961;28;20080;-66
2022/10/18 10:15:26;;;;;;;5.25;2.47;;;22.30;95.80;;;;;;5088812;28;20119;-68
2022/10/18 10:17:56;;;;;;;6.35;2.30;;;22.30;95.90;;;;;;5028919;28;20108;-68
2022/10/18 10:20:30;;;;;;;3.85;1.80;;;22.30;95.90;;;;;;5029204;28;20096;-65
2022/10/18 10:23:13;;;;;;;2.35;1.73;;;22.10;99.90;;;;;;5031581;28;20081;-70
2022/10/18 10:25:41;;;;;;;6.57;2.00;;;22.30;95.40;;;;;;5031332;28;20473;-70
2022/10/18 10:28:19;;;;;;;4.18;1.95;;;22.30;95.00;;;;;;5032371;28;20088;-70
2022/10/18 10:30:45;;;;;;;3.28;1.80;;;22.00;99.90;;;;;;5030417;28;20100;-68
2022/10/18 10:33:38;;;;;;;4.82;1.85;;;22.30;95.10;;;;;;5034415;28;20072;-68
2022/10/18 10:36:15;;;;;;;3.80;1.70;;;22.30;95.00;;;;;;5028550;28;20542;-68
2022/10/18 10:38:42;;;;;;;2.53;1.60;;;22.20;95.20;;;;;;5032590;28;20477;-67
2022/10/18 10:41:22;;;;;;;3.00;1.77;;;22.40;99.90;;;;;;5028160;28;20179;-68
2022/10/18 10:43:50;;;;;;;4.78;2.10;;;22.10;95.50;;;;;;5034628;28;20069;-68
2022/10/18 10:46:18;;;;;;;5.20;1.70;;;22.10;95.30;;;;;;5030489;28;20116;-68
2022/10/18 10:48:56;;;;;;;2.50;1.70;;;22.10;95.50;;;;;;5031024;28;20108;-69
2022/10/18 10:51:39;;;;;;;6.05;1.65;;;22.10;95.70;;;;;;5030894;28;20092;-68
2022/10/18 10:54:10;;;;;;;7.03;2.05;;;22.10;95.60;;;;;;5056383;28;20106;-68
2022/10/18 10:56:57;;;;;;;3.38;1.27;;;21.60;99.90;;;;;;5092382;28;20109;-67
2022/10/18 10:59:27;;;;;;;2.40;1.45;;;22.00;95.40;;;;;;5087322;28;20091;-67
2022/10/18 11:02:17;;;;;;;2.75;1.33;;;21.90;95.40;;;;;;5087371;28;20554;-69
2022/10/18 11:04:52;;;;;;;5.35;1.75;;;22.40;99.90;;;;;;5088231;28;20105;-68
2022/10/18 11:07:43;;;;;;;3.55;1.60;;;22.00;95.40;;;;;;5088628;28;20071;-68
2022/10/18 11:10:09;;;;;;;3.90;1.80;;;22.10;99.90;;;;;;5088265;28;20071;-68
2022/10/18 11:12:44;;;;;;;4.32;1.52;;;21.80;95.50;;;;;;5087063;28;20075;-65
2022/10/18 11:15:10;;;;;;;3.95;1.63;;;21.90;95.60;;;;;;5089488;28;20596;-66
2022/10/18 11:17:50;;;;;;;3.00;1.52;;;21.90;95.50;;;;;;5087205;28;20091;-67
2022/10/18 11:20:37;;;;;;;3.10;1.40;;;21.80;95.30;;;;;;5089317;28;20091;-68
2022/10/18 11:23:11;;;;;;;4.32;1.65;;;21.90;95.50;;;;;;5076328;28;20093;-68
2022/10/18 11:25:52;;;;;;;2.78;1.60;;;21.90;95.40;;;;;;5087713;28;20087;-67
2022/10/18 11:28:24;;;;;;;5.57;1.55;;;21.90;95.80;;;;;;5087802;28;20067;-68
2022/10/18 11:31:19;;;;;;;2.40;1.27;;;21.90;95.90;;;;;;5088087;28;20188;-67
2022/10/18 11:33:54;;;;;;;3.90;1.80;;;22.00;96.10;;;;;;5093487;28;20120;-67
2022/10/18 11:36:46;;;;;;;4.03;1.55;;;21.90;96.00;;;;;;5086039;28;20428;-67
2022/10/18 11:39:30;;;;;;;4.28;1.50;;;21.80;96.60;;;;;;5088910;28;20083;-68
2022/10/18 11:41:56;;;;;;;5.65;1.65;;;21.80;97.00;;;;;;5087005;28;20075;-66
2022/10/18 11:44:41;;;;;;;4.85;2.00;;;21.80;96.70;;;;;;5089307;28;20064;-67
2022/10/18 11:47:16;;;;;;;6.07;1.70;;;21.80;96.50;;;;;;5086290;28;20197;-68
2022/10/18 11:50:03;;;;;;;7.75;1.85;;;21.80;96.60;;;;;;5088240;28;20148;-68
2022/10/18 11:52:51;;;;;;;6.68;2.20;;;21.60;96.70;;;;;;5087638;28;20163;-68
2022/10/18 11:55:40;;;;;;;8.02;2.13;;;21.70;97.20;;;;;;5088822;28;20175;-69
2022/10/18 11:58:29;;;;;;;5.97;2.00;;;21.70;97.50;;;;;;5083233;28;20077;-67
2022/10/18 12:01:25;;;;;;;5.80;2.20;;;21.70;97.30;;;;;;5076747;28;20104;-68
2022/10/18 12:04:05;;;;;;;5.80;2.20;;;21.60;97.40;;;;;;5083895;28;20175;-69
2022/10/18 12:06:37;;;;;;;9.25;2.65;;;21.60;97.50;;;;;;5087883;28;20119;-66
2022/10/18 12:09:26;;;;;;;9.40;2.60;;;21.60;97.80;;;;;;5091844;28;20071;-67
2022/10/18 12:12:02;;;;;;;6.82;2.85;;;21.60;97.80;;;;;;5088004;28;20076;-68
2022/10/18 12:14:39;;;;;;;8.88;2.50;;;21.60;97.70;;;;;;5087324;28;20207;-69
2022/10/18 12:17:37;;;;;;;;;;;21.50;97.70;;;;;;5088605;28;20079;-67
2022/10/18 12:20:40;;;;;;;6.47;2.83;;;21.60;98.00;;;;;;5074553;28;19983;-69
2022/10/18 12:23:09;;;;;;;11.43;2.90;;;21.60;98.30;;;;;;5031019;28;20080;-67
2022/10/18 12:25:45;;;;;;;5.22;2.13;;;21.50;98.40;;;;;;5032530;28;20162;-68
2022/10/18 12:28:29;;;;;;;7.78;2.70;;;21.40;98.60;;;;;;5040485;28;20088;-67
2022/10/18 12:31:16;;;;;;;5.15;2.75;;;21.40;98.70;;;;;;5040308;28;20085;-66
2022/10/18 12:33:47;;;;;;;6.07;2.50;;;21.30;99.10;;;;;;5025415;28;20089;-68
2022/10/18 12:36:48;;;;;;;7.07;2.85;;;21.40;99.30;;;;;;5036459;28;20322;-68
2022/10/18 12:39:30;;;;;;;8.00;2.90;;;21.30;99.00;;;;;;5039994;28;20097;-67
2022/10/18 12:41:56;;;;;;;7.82;3.00;;;21.20;99.40;;;;;;5031447;28;20066;-68
2022/10/18 12:44:34;;;;;;;9.18;3.47;;;21.10;99.60;;;;;;5041115;28;20149;-67
2022/10/18 12:47:03;;;;;;;8.73;2.55;;;21.20;99.90;;;;;;5035492;28;20123;-67
2022/10/18 12:49:33;;;;;;;10.40;3.35;;;21.20;99.90;;;;;;5032044;28;20081;-67
2022/10/18 12:52:03;;;;;;;10.10;3.42;;;21.20;99.90;;;;;;5037457;28;20132;-68
2022/10/18 12:54:35;;;;;;;13.55;3.47;;;21.30;99.90;;;;;;5037596;28;20184;-67
2022/10/18 12:57:04;;;;;;;7.63;2.95;;;21.20;99.80;;;;;;5035120;28;20497;-67
2022/10/18 12:59:30;;;;;;;10.15;3.63;;;21.10;99.90;;;;;;5079796;28;20092;-66
2022/10/18 13:01:57;;;;;;;12.65;3.53;;;21.10;99.90;;;;;;5090616;28;20537;-69
2022/10/18 13:04:31;;;;;;;7.82;3.10;;;21.10;99.90;;;;;;5090334;28;20080;-67
2022/10/18 13:06:58;;;;;;;11.85;2.95;;;21.10;99.90;;;;;;5090109;28;20061;-69
2022/10/18 13:09:34;;;;;;;9.43;3.15;;;21.20;99.90;;;;;;5092140;28;20159;-67
2022/10/18 13:12:10;;;;;;;9.63;2.85;;;21.20;99.70;;;;;;5089667;28;20076;-68